Time;durP1;ratioP1;P1;durP2;ratioP2;P2;SDS_P1;SDS_P2;PMS_P1;PMS_P2;Temp;Humidity;BMP_temperature;BMP_pressure;BME280_temperature;BME280_humidity;BME280_pressure;Samples;Min_cycle;Max_cycle;Signal;HPM_P1;HPM_P2
2021/10/21 00:00:52;;;;;;;6.17;5.67;;;;;;;;;;5066690;28;20450;-81
2021/10/21 00:03:19;;;;;;;5.97;5.37;;;;;;;;;;5073077;28;20445;-80
2021/10/21 00:05:46;;;;;;;6.93;5.87;;;;;;;;;;5073696;28;20938;-81
2021/10/21 00:08:12;;;;;;;6.57;5.97;;;;;;;;;;5069743;28;20417;-83
2021/10/21 00:10:42;;;;;;;8.80;6.30;;;16.50;99.90;;;;;;5060079;28;20450;-83
2021/10/21 00:13:10;;;;;;;7.40;5.37;;;16.50;99.90;;;;;;5066361;28;20441;-80
2021/10/21 00:15:37;;;;;;;6.57;5.23;;;;;;;;;;5072796;28;20465;-83
2021/10/21 00:18:04;;;;;;;5.40;5.00;;;;;;;;;;5060186;28;20563;-84
2021/10/21 00:20:32;;;;;;;4.83;4.23;;;;;;;;;;5059628;28;20441;-83
2021/10/21 00:22:58;;;;;;;5.17;4.77;;;;;;;;;;5064314;28;20425;-82
2021/10/21 00:25:25;;;;;;;5.47;4.97;;;;;;;;;;5064943;28;20973;-84
2021/10/21 00:27:52;;;;;;;4.90;4.40;;;;;;;;;;5066388;28;20501;-83
2021/10/21 00:30:20;;;;;;;6.30;5.07;;;16.50;99.90;;;;;;5070107;28;20446;-83
2021/10/21 00:32:47;;;;;;;6.97;5.27;;;;;;;;;;5072781;28;20442;-80
2021/10/21 00:35:14;;;;;;;4.83;4.50;;;;;;;;;;5068492;28;20992;-84
2021/10/21 00:37:41;;;;;;;4.97;4.53;;;;;;;;;;5064936;28;20422;-82
2021/10/21 00:40:09;;;;;;;5.90;5.07;;;16.40;99.90;;;;;;5062816;28;20405;-83
2021/10/21 00:42:37;;;;;;;5.90;5.40;;;;;;;;;;5066371;28;20454;-84
2021/10/21 00:45:04;;;;;;;5.20;4.70;;;16.30;99.90;;;;;;5070784;28;20458;-80
2021/10/21 00:47:32;;;;;;;4.93;4.53;;;16.30;99.90;;;;;;5065428;28;20898;-82
2021/10/21 00:49:59;;;;;;;6.27;5.63;;;16.70;99.90;;;;;;5076060;28;20445;-82
2021/10/21 00:52:26;;;;;;;7.97;5.00;;;;;;;;;;5077455;28;20463;-81
2021/10/21 00:54:54;;;;;;;4.50;4.20;;;;;;;;;;5078073;28;20469;-82
2021/10/21 00:57:21;;;;;;;4.77;4.37;;;;;;;;;;5077430;28;20427;-80
2021/10/21 00:59:48;;;;;;;4.47;4.17;;;;;;;;;;5077286;28;20442;-81
2021/10/21 01:02:15;;;;;;;5.03;4.63;;;;;;;;;;5075576;28;20461;-81
2021/10/21 01:04:43;;;;;;;6.07;4.37;;;16.30;99.90;;;;;;5072541;28;20477;-83
2021/10/21 01:07:11;;;;;;;4.70;4.30;;;;;;;;;;5070278;28;21044;-83
2021/10/21 01:09:40;;;;;;;5.50;5.07;;;16.30;99.90;;;;;;5059169;28;20452;-83
2021/10/21 01:12:07;;;;;;;5.40;4.50;;;;;;;;;;5058867;28;20457;-84
2021/10/21 01:14:34;;;;;;;6.20;4.47;;;;;;;;;;5057587;28;20520;-82
2021/10/21 01:17:01;;;;;;;9.93;8.93;;;;;;;;;;5058479;28;20450;-84
2021/10/21 01:19:28;;;;;;;5.53;5.00;;;16.30;99.90;;;;;;5057413;28;20495;-83
2021/10/21 01:21:57;;;;;;;5.20;4.70;;;16.30;99.90;;;;;;5057866;28;20511;-82
2021/10/21 01:24:25;;;;;;;4.77;4.37;;;16.30;99.90;;;;;;5057478;28;20645;-83
2021/10/21 01:26:53;;;;;;;5.20;4.80;;;16.30;99.90;;;;;;5057056;28;20477;-84
2021/10/21 01:29:22;;;;;;;8.13;5.47;;;16.30;99.90;;;;;;5057039;28;20446;-83
2021/10/21 01:31:49;;;;;;;4.30;4.00;;;;;;;;;;5057741;28;20520;-83
2021/10/21 01:34:17;;;;;;;7.73;5.07;;;;;;;;;;5057403;28;20430;-83
2021/10/21 01:36:49;;;;;;;7.23;4.63;;;16.30;99.90;;;;;;5064569;28;20480;-81
2021/10/21 01:39:17;;;;;;;5.03;4.53;;;16.30;99.90;;;;;;5072086;28;20443;-82
2021/10/21 01:41:44;;;;;;;4.77;4.27;;;;;;;;;;5068990;28;20472;-83
2021/10/21 01:44:11;;;;;;;5.40;3.90;;;;;;;;;;5058051;28;20477;-83
2021/10/21 01:46:38;;;;;;;5.03;4.30;;;16.30;99.90;;;;;;5057480;28;20517;-83
2021/10/21 01:49:06;;;;;;;4.67;4.27;;;;;;;;;;5057482;28;20487;-83
2021/10/21 01:51:33;;;;;;;4.50;4.10;;;;;;;;;;5057827;28;20442;-82
2021/10/21 01:53:59;;;;;;;5.20;4.80;;;;;;;;;;5059837;28;20452;-83
2021/10/21 01:56:27;;;;;;;7.87;6.43;;;16.40;99.90;;;;;;5058970;28;20444;-82
2021/10/21 01:58:54;;;;;;;5.83;4.77;;;;;;;;;;5060174;28;20503;-83
2021/10/21 02:01:21;;;;;;;4.90;4.40;;;;;;;;;;5059724;28;20457;-82
2021/10/21 02:03:48;;;;;;;4.27;3.50;;;;;;;;;;5057143;28;20446;-83
2021/10/21 02:06:16;;;;;;;3.70;3.40;;;;;;;;;;5058527;28;20992;-80
2021/10/21 02:08:43;;;;;;;3.97;3.60;;;;;;;;;;5074956;28;20526;-82
2021/10/21 02:11:10;;;;;;;4.50;4.10;;;;;;;;;;5070705;28;20469;-83
2021/10/21 02:13:38;;;;;;;5.10;4.00;;;16.50;99.90;;;;;;5072984;28;20422;-83
2021/10/21 02:16:05;;;;;;;4.33;3.93;;;;;;;;;;5077534;28;20473;-82
2021/10/21 02:18:32;;;;;;;5.50;3.60;;;;;;;;;;5067428;28;20428;-83
2021/10/21 02:20:59;;;;;;;3.93;3.63;;;;;;;;;;5071803;28;20528;-82
2021/10/21 02:23:26;;;;;;;7.23;4.70;;;;;;;;;;5077680;28;20454;-81
2021/10/21 02:25:53;;;;;;;3.70;3.50;;;;;;;;;;5075183;28;20502;-81
2021/10/21 02:28:20;;;;;;;3.23;2.93;;;;;;;;;;5070574;28;20613;-82
2021/10/21 02:30:48;;;;;;;2.60;2.40;;;16.70;99.90;;;;;;5071003;28;20458;-81
2021/10/21 02:33:16;;;;;;;3.73;2.70;;;;;;;;;;5070311;28;20933;-82
2021/10/21 02:35:43;;;;;;;2.47;2.28;;;;;;;;;;5065719;28;20434;-82
2021/10/21 02:38:13;;;;;;;4.20;3.30;;;;;;;;;;5070012;28;20196;-82
2021/10/21 02:40:39;;;;;;;3.90;2.20;;;;;;;;;;5068924;28;20427;-81
2021/10/21 02:43:06;;;;;;;2.50;2.30;;;;;;;;;;5069826;28;20435;-81
2021/10/21 02:45:34;;;;;;;3.10;2.90;;;;;;;;;;5070330;28;20470;-83
2021/10/21 02:48:02;;;;;;;4.83;3.47;;;16.70;99.90;;;;;;5062735;28;20482;-83
2021/10/21 02:50:29;;;;;;;2.53;2.33;;;;;;;;;;5062997;28;20818;-82
2021/10/21 02:52:56;;;;;;;2.57;2.37;;;;;;;;;;5067079;28;20803;-83
2021/10/21 02:55:23;;;;;;;3.40;2.60;;;;;;;;;;5060414;28;20470;-82
2021/10/21 02:57:50;;;;;;;2.37;2.20;;;;;;;;;;5060722;28;20460;-82
2021/10/21 03:00:18;;;;;;;2.70;2.40;;;17.10;99.90;;;;;;5061510;28;20535;-82
2021/10/21 03:02:45;;;;;;;2.50;2.30;;;;;;;;;;5061964;28;20203;-82
2021/10/21 03:05:13;;;;;;;3.30;2.17;;;16.60;99.90;;;;;;5061879;28;20465;-81
2021/10/21 03:07:40;;;;;;;2.43;2.23;;;;;;;;;;5065185;28;20482;-82
2021/10/21 03:10:07;;;;;;;2.00;1.90;;;16.50;99.90;;;;;;5061903;28;20445;-81
2021/10/21 03:12:34;;;;;;;2.40;2.20;;;;;;;;;;5060978;28;20541;-82
2021/10/21 03:15:01;;;;;;;2.50;2.30;;;;;;;;;;5062035;28;20523;-84
2021/10/21 03:17:28;;;;;;;2.20;2.00;;;;;;;;;;5061131;28;20432;-81
2021/10/21 03:19:55;;;;;;;3.00;2.33;;;;;;;;;;5061947;28;20210;-83
2021/10/21 03:22:23;;;;;;;3.10;2.47;;;16.50;99.90;;;;;;5066603;28;20936;-82
2021/10/21 03:24:51;;;;;;;2.63;2.43;;;;;;;;;;5075335;28;20461;-81
2021/10/21 03:27:18;;;;;;;2.50;2.40;;;;;;;;;;5072119;28;20488;-83
2021/10/21 03:29:45;;;;;;;2.57;2.37;;;;;;;;;;5067623;28;20500;-83
2021/10/21 03:32:14;;;;;;;2.53;2.33;;;;;;;;;;5064399;28;20507;-83
2021/10/21 03:34:41;;;;;;;40.87;16.43;;;;;;;;;;5075128;22;20504;-86
2021/10/21 03:37:08;;;;;;;2.90;2.70;;;;;;;;;;5062128;28;20461;-86
2021/10/21 03:39:36;;;;;;;2.60;2.40;;;17.30;99.90;;;;;;5062543;28;20450;-86
2021/10/21 03:42:04;;;;;;;2.50;2.30;;;;;;;;;;5061114;28;20852;-87
2021/10/21 03:44:31;;;;;;;4.07;3.43;;;;;;;;;;5063417;28;20457;-87
2021/10/21 03:46:58;;;;;;;2.63;2.23;;;;;;;;;;5063408;28;20561;-85
2021/10/21 03:49:25;;;;;;;2.17;1.80;;;;;;;;;;5063296;28;20546;-86
2021/10/21 03:51:52;;;;;;;2.87;2.60;;;;;;;;;;5061787;28;20450;-86
2021/10/21 03:54:19;;;;;;;2.43;2.23;;;;;;;;;;5062528;28;20413;-87
2021/10/21 03:56:47;;;;;;;2.77;2.57;;;16.50;99.90;;;;;;5064897;28;20442;-91
2021/10/21 03:59:14;;;;;;;2.60;2.40;;;;;;;;;;5079640;28;20457;-91
2021/10/21 04:01:40;;;;;;;2.75;1.90;;;;;;;;;;5076286;28;20466;-87
2021/10/21 04:04:07;;;;;;;2.00;1.87;;;;;;;;;;5063493;28;20219;-87
2021/10/21 04:06:34;;;;;;;1.77;1.67;;;;;;;;;;5076338;28;20470;-89
2021/10/21 04:09:02;;;;;;;2.97;2.73;;;;;;;;;;5079512;28;20485;-87
2021/10/21 04:11:30;;;;;;;3.67;1.53;;;;;;;;;;5078939;28;20442;-86
2021/10/21 04:13:58;;;;;;;2.30;2.20;;;;;;;;;;5079148;28;20438;-87
2021/10/21 04:16:25;;;;;;;1.80;1.70;;;;;;;;;;5078838;28;20461;-86
2021/10/21 04:18:52;;;;;;;1.60;1.50;;;;;;;;;;5078888;28;20488;-85
2021/10/21 04:21:20;;;;;;;1.83;1.73;;;;;;;;;;5071076;28;20480;-86
2021/10/21 04:23:47;;;;;;;1.80;1.30;;;;;;;;;;5063170;28;20429;-86
2021/10/21 04:26:14;;;;;;;1.63;1.40;;;;;;;;;;5061085;28;20476;-86
2021/10/21 04:28:41;;;;;;;2.13;1.93;;;;;;;;;;5061825;28;20485;-87
2021/10/21 04:31:10;;;;;;;1.60;1.43;;;;;;;;;;5073787;28;20477;-87
2021/10/21 04:33:37;;;;;;;1.90;1.77;;;;;;;;;;5078885;28;20442;-87
2021/10/21 04:36:04;;;;;;;2.60;1.80;;;;;;;;;;5068798;28;21057;-87
2021/10/21 04:38:31;;;;;;;3.07;1.70;;;;;;;;;;5061367;28;20472;-87
2021/10/21 04:40:58;;;;;;;1.67;1.57;;;;;;;;;;5061302;28;20477;-87
2021/10/21 04:43:25;;;;;;;1.90;1.80;;;;;;;;;;5060532;28;20454;-87
2021/10/21 04:45:52;;;;;;;3.00;1.90;;;;;;;;;;5062403;28;21038;-87
2021/10/21 04:48:21;;;;;;;4.10;2.23;;;;;;;;;;5060975;28;20466;-87
2021/10/21 04:50:48;;;;;;;6.10;1.47;;;;;;;;;;5058972;28;20862;-88
2021/10/21 04:53:15;;;;;;;1.83;1.73;;;;;;;;;;5059219;28;20419;-87
2021/10/21 04:55:42;;;;;;;1.63;1.53;;;;;;;;;;5059048;28;20466;-87
2021/10/21 04:58:09;;;;;;;1.90;1.33;;;;;;;;;;5058961;28;20446;-87
2021/10/21 05:00:37;;;;;;;1.57;1.47;;;;;;;;;;5061054;28;20442;-87
2021/10/21 05:03:07;;;;;;;1.60;1.00;;;14.60;99.90;;;;;;5074574;28;20452;-87
2021/10/21 05:05:36;;;;;;;1.60;1.50;;;;;;;;;;5077181;28;20524;-86
2021/10/21 05:08:03;;;;;;;2.60;1.73;;;;;;;;;;5072471;28;20474;-87
2021/10/21 05:10:30;;;;;;;1.37;1.27;;;;;;;;;;5063105;28;20446;-87
2021/10/21 05:12:57;;;;;;;4.33;2.10;;;;;;;;;;5059312;28;20429;-87
2021/10/21 05:15:28;;;;;;;3.60;2.27;;;;;;;;;;5060350;28;20477;-86
2021/10/21 05:17:55;;;;;;;2.70;1.40;;;;;;;;;;5062131;28;20899;-87
2021/10/21 05:20:22;;;;;;;2.80;1.90;;;;;;;;;;5061244;28;20438;-87
2021/10/21 05:22:51;;;;;;;2.90;1.50;;;;;;;;;;5059038;28;20884;-87
2021/10/21 05:25:19;;;;;;;3.70;1.73;;;14.70;99.90;;;;;;5060846;28;20810;-87
2021/10/21 05:27:46;;;;;;;1.90;1.80;;;;;;;;;;5061219;28;20469;-87
2021/10/21 05:30:15;;;;;;;4.90;2.07;;;;;;;;;;5061560;28;20438;-87
2021/10/21 05:32:46;;;;;;;1.10;1.00;;;;;;;;;;5062080;28;20446;-86
2021/10/21 05:35:14;;;;;;;1.53;1.37;;;;;;;;;;5060744;28;20477;-86
2021/10/21 05:37:42;;;;;;;2.90;1.33;;;;;;;;;;5059860;28;20469;-86
2021/10/21 05:40:13;;;;;;;2.10;1.90;;;;;;;;;;5061031;28;20453;-87
2021/10/21 05:42:41;;;;;;;3.50;2.00;;;;;;;;;;5062016;28;20458;-87
2021/10/21 05:45:09;;;;;;;2.00;1.73;;;;;;;;;;5062381;28;20538;-87
2021/10/21 05:47:36;;;;;;;1.43;1.33;;;;;;;;;;5061541;28;20476;-86
2021/10/21 05:50:04;;;;;;;2.33;1.53;;;;;;;;;;5064686;28;20462;-87
2021/10/21 05:52:31;;;;;;;2.50;2.30;;;;;;;;;;5066689;28;20822;-86
2021/10/21 05:55:01;;;;;;;1.63;1.53;;;;;;;;;;5070837;28;20446;-88
2021/10/21 05:57:29;;;;;;;3.00;2.63;;;;;;;;;;5065015;28;20434;-87
2021/10/21 05:59:56;;;;;;;1.90;1.80;;;;;;;;;;5062390;28;20421;-86
2021/10/21 06:02:26;;;;;;;8.73;3.57;;;;;;;;;;5061816;28;20936;-87
2021/10/21 06:04:53;;;;;;;1.50;1.40;;;;;;;;;;5068934;28;20424;-87
2021/10/21 06:07:20;;;;;;;2.53;1.70;;;;;;;;;;5077059;28;20446;-89
2021/10/21 06:09:48;;;;;;;1.97;1.60;;;;;;;;;;5076247;28;20478;-87
2021/10/21 06:12:15;;;;;;;1.43;1.20;;;;;;;;;;5076153;28;20472;-86
2021/10/21 06:14:43;;;;;;;2.40;1.40;;;;;;;;;;5060708;28;20567;-86
2021/10/21 06:17:10;;;;;;;1.40;1.30;;;;;;;;;;5067180;28;20442;-87
2021/10/21 06:22:28;;;;;;;4.27;1.60;;;;;;;;;;5050137;28;20477;-86
2021/10/21 06:24:55;;;;;;;3.57;1.90;;;;;;;;;;5063292;28;20960;-87
2021/10/21 06:27:22;;;;;;;3.47;2.00;;;;;;;;;;5064307;28;20846;-86
2021/10/21 06:29:50;;;;;;;2.70;1.40;;;;;;;;;;5063214;28;20478;-87
2021/10/21 06:32:18;;;;;;;2.67;1.60;;;;;;;;;;5063995;28;20492;-87
2021/10/21 06:34:45;;;;;;;3.10;2.40;;;;;;;;;;5062761;28;20440;-87
2021/10/21 06:37:13;;;;;;;2.40;1.50;;;;;;;;;;5063376;28;20521;-86
2021/10/21 06:39:40;;;;;;;1.70;1.37;;;;;;;;;;5066406;28;20449;-86
2021/10/21 06:42:07;;;;;;;3.67;1.23;;;;;;;;;;5063578;28;20453;-87
2021/10/21 06:44:34;;;;;;;5.50;2.50;;;;;;;;;;5063819;28;20465;-85
2021/10/21 06:47:02;;;;;;;1.30;1.20;;;;;;;;;;5064951;28;20786;-87
2021/10/21 06:49:30;;;;;;;1.70;1.50;;;;;;;;;;5062580;28;20485;-87
2021/10/21 06:51:57;;;;;;;2.90;1.47;;;;;;;;;;5062473;28;20464;-87
2021/10/21 06:54:27;;;;;;;4.20;2.13;;;;;;;;;;5065312;28;20454;-86
2021/10/21 06:59:58;;;;;;;5.40;1.30;;;;;;;;;;5064850;28;20416;-88
2021/10/21 07:05:38;;;;;;;3.20;1.20;;;;;;;;;;5048362;28;20453;-87
2021/10/21 07:08:05;;;;;;;3.43;2.33;;;;;;;;;;5079683;28;20434;-87
2021/10/21 07:10:32;;;;;;;1.47;1.33;;;;;;;;;;5373541;22;20551;-86
2021/10/21 07:13:02;;;;;;;5.20;1.90;;;;;;;;;;5079313;28;20451;-87
2021/10/21 07:15:29;;;;;;;3.00;1.30;;;;;;;;;;5067605;28;20462;-87
2021/10/21 07:17:56;;;;;;;2.50;1.47;;;;;;;;;;5066108;28;20533;-87
2021/10/21 07:20:23;;;;;;;3.00;1.43;;;;;;;;;;5064311;28;20541;-86
2021/10/21 07:22:52;;;;;;;6.17;2.47;;;15.70;99.90;;;;;;5088062;22;20486;-82
2021/10/21 07:25:19;;;;;;;1.47;1.10;;;;;;;;;;5065343;28;20477;-84
2021/10/21 07:27:46;;;;;;;3.07;2.03;;;;;;;;;;5065589;28;20450;-84
2021/10/21 07:30:13;;;;;;;2.63;1.13;;;;;;;;;;5063545;28;20855;-84
2021/10/21 07:32:40;;;;;;;1.90;1.00;;;;;;;;;;5065257;28;20470;-82
2021/10/21 07:35:08;;;;;;;3.67;1.43;;;15.40;99.90;;;;;;5068135;28;20453;-83
2021/10/21 07:37:35;;;;;;;3.33;0.90;;;;;;;;;;5068572;28;20417;-83
2021/10/21 07:40:05;;;;;;;9.70;1.93;;;15.40;99.90;;;;;;5068161;28;20442;-83
2021/10/21 07:42:33;;;;;;;2.27;1.47;;;;;;;;;;5066783;28;20476;-82
2021/10/21 07:45:00;;;;;;;1.77;1.20;;;;;;;;;;5068042;28;20828;-84
2021/10/21 07:47:28;;;;;;;3.47;1.30;;;;;;;;;;5066927;28;20442;-84
2021/10/21 07:49:55;;;;;;;6.30;1.60;;;;;;;;;;5069755;28;20488;-82
2021/10/21 07:52:22;;;;;;;2.40;1.13;;;;;;;;;;5069218;28;20450;-82
2021/10/21 07:54:49;;;;;;;8.13;1.63;;;;;;;;;;5067373;28;20498;-82
2021/10/21 07:57:19;;;;;;;2.63;1.40;;;15.60;99.90;;;;;;5068096;28;20936;-82
2021/10/21 07:59:46;;;;;;;3.23;1.33;;;;;;;;;;5067433;28;20435;-82
2021/10/21 08:02:14;;;;;;;7.20;1.40;;;;;;;;;;5066541;28;20457;-83
2021/10/21 08:04:41;;;;;;;2.30;1.00;;;;;;;;;;5066589;28;20446;-83
2021/10/21 08:07:08;;;;;;;5.60;1.70;;;;;;;;;;5067481;28;20417;-83
2021/10/21 08:09:35;;;;;;;4.93;1.73;;;;;;;;;;5066035;28;20477;-83
2021/10/21 08:12:04;;;;;;;10.03;1.40;;;15.70;99.90;;;;;;5070321;28;20434;-80
2021/10/21 08:14:32;;;;;;;9.47;2.10;;;15.70;99.90;;;;;;5069467;28;20473;-84
2021/10/21 08:16:59;;;;;;;16.23;2.40;;;;;;;;;;5064720;28;20450;-84
2021/10/21 08:19:26;;;;;;;2.60;1.00;;;;;;;;;;5065146;28;20417;-83
2021/10/21 08:21:54;;;;;;;6.37;1.13;;;15.80;99.90;;;;;;5065441;28;20428;-83
2021/10/21 08:24:22;;;;;;;7.50;1.63;;;;;;;;;;5065720;28;20619;-82
2021/10/21 08:26:49;;;;;;;1.87;1.67;;;15.90;99.90;;;;;;5065075;28;20454;-83
2021/10/21 08:29:16;;;;;;;5.70;1.17;;;;;;;;;;5064975;28;20504;-84
2021/10/21 08:31:44;;;;;;;3.73;1.10;;;16.00;99.90;;;;;;5067916;28;20484;-83
2021/10/21 08:34:11;;;;;;;2.77;1.67;;;;;;;;;;5069281;28;20466;-83
2021/10/21 08:36:38;;;;;;;4.30;1.10;;;;;;;;;;5065205;28;20495;-83
2021/10/21 08:39:07;;;;;;;1.93;1.73;;;;;;;;;;5062397;28;20442;-83
2021/10/21 08:41:34;;;;;;;5.30;1.20;;;;;;;;;;5063447;28;20450;-83
2021/10/21 08:44:01;;;;;;;4.90;1.40;;;;;;;;;;5068060;28;20568;-83
2021/10/21 08:46:29;;;;;;;4.90;0.97;;;16.00;99.90;;;;;;5076822;28;20481;-83
2021/10/21 08:48:57;;;;;;;6.73;1.13;;;16.00;99.90;;;;;;5075698;28;20483;-83
2021/10/21 08:51:24;;;;;;;1.10;1.00;;;;;;;;;;5066584;28;20449;-85
2021/10/21 08:53:51;;;;;;;1.60;0.90;;;;;;;;;;5077749;28;20428;-81
2021/10/21 08:56:21;;;;;;;2.23;1.00;;;16.10;99.90;;;;;;5077631;28;20477;-80
2021/10/21 08:58:49;;;;;;;2.37;1.07;;;;;;;;;;5064218;28;20426;-83
2021/10/21 09:01:19;;;;;;;4.00;0.80;;;;;;;;;;5064297;28;20508;-83
2021/10/21 09:03:54;;;;;;;5.47;1.73;;;16.10;99.90;;;;;;5065007;28;20474;-83
2021/10/21 09:09:06;;;;;;;2.50;1.00;;;;;;;;;;5039030;28;20504;-81
2021/10/21 09:11:33;;;;;;;2.40;1.43;;;;;;;;;;5072834;28;20442;-82
2021/10/21 09:14:11;;;;;;;5.40;1.20;;;16.00;99.90;;;;;;5075583;28;20441;-81
2021/10/21 09:16:39;;;;;;;1.57;1.00;;;;;;;;;;5073989;28;20404;-83
2021/10/21 09:19:07;;;;;;;12.23;4.30;;;16.00;99.90;;;;;;5072204;28;20432;-82
2021/10/21 09:21:37;;;;;;;1.67;1.00;;;15.90;99.90;;;;;;5070571;28;20420;-82
2021/10/21 09:24:26;;;;;;;2.93;1.10;;;15.90;99.90;;;;;;5072192;28;20515;-81
2021/10/21 09:27:04;;;;;;;2.30;0.90;;;15.90;99.90;;;;;;5071056;28;20437;-80
2021/10/21 09:29:31;;;;;;;3.27;1.37;;;;;;;;;;5068389;28;20510;-81
2021/10/21 09:32:06;;;;;;;5.03;1.43;;;15.80;99.90;;;;;;5071124;28;20423;-81
2021/10/21 09:34:33;;;;;;;0.70;0.60;;;;;;;;;;5075931;28;20528;-81
2021/10/21 09:37:08;;;;;;;3.60;0.97;;;15.70;99.90;;;;;;5077812;28;20442;-81
2021/10/21 09:39:45;;;;;;;0.70;0.70;;;15.70;99.90;;;;;;5076938;28;20400;-82
2021/10/21 09:42:12;;;;;;;2.40;1.60;;;;;;;;;;5077272;28;20465;-81
2021/10/21 09:44:39;;;;;;;6.90;3.60;;;;;;;;;;5077227;28;20434;-82
2021/10/21 09:47:20;;;;;;;3.97;1.03;;;15.80;99.90;;;;;;5077003;28;20437;-82
2021/10/21 09:49:53;;;;;;;7.10;1.70;;;15.90;99.90;;;;;;5076657;28;20520;-83
2021/10/21 09:52:22;;;;;;;8.40;1.40;;;15.80;99.90;;;;;;5071884;28;20465;-82
2021/10/21 09:54:50;;;;;;;7.70;1.30;;;15.90;99.90;;;;;;5069081;28;20424;-83
2021/10/21 09:57:18;;;;;;;7.20;1.97;;;;;;;;;;5069742;28;20454;-83
2021/10/21 09:59:59;;;;;;;2.10;1.03;;;15.90;99.90;;;;;;5068735;28;20458;-84
2021/10/21 10:02:26;;;;;;;7.83;2.13;;;;;;;;;;5068358;28;20441;-84
2021/10/21 10:04:54;;;;;;;2.83;1.37;;;15.90;99.90;;;;;;5069465;28;20442;-84
2021/10/21 10:07:24;;;;;;;8.00;1.17;;;15.90;99.90;;;;;;5067868;28;20446;-83
2021/10/21 10:09:54;;;;;;;7.40;1.17;;;;;;;;;;5067253;28;20514;-83
2021/10/21 10:12:21;;;;;;;4.57;1.60;;;;;;;;;;5070372;28;20426;-83
2021/10/21 10:14:48;;;;;;;3.90;1.20;;;;;;;;;;5074421;28;20421;-84
2021/10/21 10:17:15;;;;;;;9.10;1.60;;;;;;;;;;5068715;28;20420;-84
2021/10/21 10:19:44;;;;;;;6.67;1.20;;;15.90;99.90;;;;;;5068288;28;20421;-83
2021/10/21 10:22:13;;;;;;;8.17;1.40;;;15.90;99.90;;;;;;5076471;28;21005;-81
2021/10/21 10:24:42;;;;;;;4.63;1.60;;;15.90;99.90;;;;;;5075258;28;20456;-83
2021/10/21 10:27:21;;;;;;;12.80;2.93;;;15.90;99.90;;;;;;5073818;28;20427;-82
2021/10/21 10:29:48;;;;;;;8.27;1.17;;;15.90;99.90;;;;;;5080540;28;20466;-81
2021/10/21 10:32:40;;;;;;;9.80;1.47;;;15.80;99.90;;;;;;5080952;28;20476;-82
2021/10/21 10:35:12;;;;;;;3.07;1.23;;;15.80;99.90;;;;;;5081669;28;20434;-81
2021/10/21 10:37:44;;;;;;;11.77;3.43;;;15.70;99.90;;;;;;5079518;28;20421;-82
2021/10/21 10:40:13;;;;;;;8.97;2.03;;;15.60;99.90;;;;;;5077026;28;20446;-84
2021/10/21 10:43:00;;;;;;;16.63;1.60;;;15.50;99.90;;;;;;5069035;28;20998;-83
2021/10/21 10:45:44;;;;;;;9.57;1.33;;;15.40;99.90;;;;;;5070434;28;20465;-81
2021/10/21 10:48:13;;;;;;;9.93;2.13;;;15.30;99.90;;;;;;5077219;28;20917;-81
2021/10/21 10:50:54;;;;;;;8.27;1.10;;;15.50;99.90;;;;;;5078276;28;20490;-82
2021/10/21 10:53:45;;;;;;;12.67;1.43;;;15.40;99.90;;;;;;5080034;28;20472;-84
2021/10/21 10:56:43;;;;;;;8.70;1.37;;;15.20;99.90;;;;;;5069574;28;20457;-83
2021/10/21 10:59:22;;;;;;;3.97;1.23;;;14.90;99.90;;;;;;5073872;28;20394;-79
2021/10/21 11:01:49;;;;;;;6.40;1.03;;;;;;;;;;5076891;28;20434;-81
2021/10/21 11:04:56;;;;;;;2.43;1.77;;;13.90;99.90;;;;;;5070610;28;20462;-83
2021/10/21 11:07:25;;;;;;;7.40;1.10;;;13.30;99.90;;;;;;5070267;28;20430;-82
2021/10/21 11:09:53;;;;;;;1.50;0.80;;;;;;;;;;5069063;28;20797;-82
2021/10/21 11:12:21;;;;;;;0.93;0.83;;;12.80;99.90;;;;;;5068453;28;20445;-84
2021/10/21 11:14:54;;;;;;;1.40;0.90;;;;;;;;;;5070998;28;20442;-82
2021/10/21 11:17:42;;;;;;;2.17;0.80;;;12.60;99.90;;;;;;5079004;28;20418;-83
2021/10/21 11:20:42;;;;;;;2.13;0.80;;;12.60;99.90;;;;;;5070069;28;20525;-81
2021/10/21 11:23:43;;;;;;;1.43;0.77;;;12.80;99.90;;;;;;5068557;28;20448;-82
2021/10/21 11:26:10;;;;;;;1.57;0.77;;;;;;;;;;5070507;28;20446;-84
2021/10/21 11:28:37;;;;;;;0.97;0.67;;;;;;;;;;5076956;28;20450;-83
2021/10/21 11:31:08;;;;;;;8.93;1.57;;;12.80;99.90;;;;;;5076451;28;20448;-82
2021/10/21 11:33:36;;;;;;;2.40;1.33;;;;;;;;;;5075486;28;20469;-83
2021/10/21 11:36:03;;;;;;;1.53;0.80;;;12.50;99.90;;;;;;5075776;28;20409;-82
2021/10/21 11:38:32;;;;;;;2.50;0.80;;;;;;;;;;5073633;28;20438;-81
2021/10/21 11:41:01;;;;;;;0.90;0.77;;;12.40;99.90;;;;;;5076141;28;20453;-82
2021/10/21 11:43:36;;;;;;;1.93;1.73;;;12.40;99.90;;;;;;5079119;28;20494;-80
2021/10/21 11:46:04;;;;;;;1.03;0.93;;;12.30;99.90;;;;;;5072137;28;20438;-82
2021/10/21 11:48:33;;;;;;;1.53;1.00;;;12.40;99.90;;;;;;5070198;28;20428;-84
2021/10/21 11:51:01;;;;;;;9.00;1.17;;;12.40;99.90;;;;;;5068010;28;20450;-83
2021/10/21 11:53:29;;;;;;;2.40;0.90;;;12.40;99.90;;;;;;5067136;28;20474;-85
2021/10/21 11:55:56;;;;;;;1.57;0.80;;;;;;;;;;5066965;28;20482;-81
2021/10/21 11:58:26;;;;;;;2.40;0.80;;;12.50;99.90;;;;;;5069688;28;20395;-83
2021/10/21 12:00:55;;;;;;;3.37;1.37;;;12.70;99.90;;;;;;5078978;28;20470;-81
2021/10/21 12:03:31;;;;;;;1.13;0.90;;;;;;;;;;5078835;28;20421;-83
2021/10/21 12:05:58;;;;;;;2.17;1.00;;;12.80;99.90;;;;;;5073281;28;20394;-84
2021/10/21 12:08:25;;;;;;;1.57;1.33;;;;;;;;;;5079114;28;20435;-80
2021/10/21 12:10:56;;;;;;;1.10;0.90;;;12.70;99.90;;;;;;5079141;28;20465;-80
2021/10/21 12:13:26;;;;;;;2.30;0.90;;;12.70;99.90;;;;;;5078454;28;20518;-83
2021/10/21 12:15:55;;;;;;;2.93;1.00;;;12.90;99.90;;;;;;5073733;28;20476;-83
2021/10/21 12:18:22;;;;;;;8.63;1.27;;;;;;;;;;5071364;28;20481;-82
2021/10/21 12:20:52;;;;;;;4.77;1.37;;;;;;;;;;5067311;28;20481;-83
2021/10/21 12:23:24;;;;;;;4.07;1.10;;;13.00;99.90;;;;;;5077376;28;20492;-81
2021/10/21 12:25:53;;;;;;;1.30;1.00;;;12.90;99.90;;;;;;5079057;28;20422;-83
2021/10/21 12:28:20;;;;;;;3.50;1.47;;;;;;;;;;5079009;28;20489;-83
2021/10/21 12:30:49;;;;;;;3.10;1.13;;;12.90;99.90;;;;;;5078925;28;20492;-81
2021/10/21 12:33:18;;;;;;;3.90;1.00;;;12.90;99.90;;;;;;5079057;28;20461;-81
2021/10/21 12:36:01;;;;;;;6.77;2.20;;;12.90;99.90;;;;;;5069487;28;20444;-82
2021/10/21 12:38:28;;;;;;;4.37;2.87;;;;;;;;;;5065737;28;20442;-83
2021/10/21 12:41:03;;;;;;;15.93;10.67;;;13.00;99.90;;;;;;5063415;28;20995;-83
2021/10/21 12:43:31;;;;;;;10.90;7.97;;;;;;;;;;5062891;28;20445;-83
2021/10/21 12:46:01;;;;;;;7.73;5.43;;;13.10;99.90;;;;;;5063425;28;20446;-85
2021/10/21 12:48:29;;;;;;;3.83;2.77;;;13.10;99.90;;;;;;5066632;28;20454;-83
2021/10/21 12:51:12;;;;;;;6.40;2.00;;;13.10;99.90;;;;;;5075799;28;20448;-82
2021/10/21 12:53:39;;;;;;;1.23;1.10;;;;;;;;;;5076491;28;20481;-82
2021/10/21 12:56:20;;;;;;;6.30;1.07;;;13.10;99.90;;;;;;5075566;28;20567;-82
2021/10/21 12:58:47;;;;;;;3.87;1.50;;;;;;;;;;5073955;28;20427;-82
2021/10/21 13:01:15;;;;;;;6.20;1.70;;;13.30;99.90;;;;;;5071145;28;20478;-81
2021/10/21 13:03:43;;;;;;;2.87;1.70;;;13.30;99.90;;;;;;5066356;28;20467;-83
2021/10/21 13:06:10;;;;;;;7.90;1.20;;;;;;;;;;5064499;28;20458;-84
2021/10/21 13:08:41;;;;;;;1.63;1.10;;;;;;;;;;5064142;28;20827;-83
2021/10/21 13:11:09;;;;;;;2.30;1.70;;;;;;;;;;5064747;28;20405;-83
2021/10/21 13:13:37;;;;;;;3.03;1.30;;;13.30;99.90;;;;;;5064445;28;20473;-84
2021/10/21 13:16:05;;;;;;;3.33;1.70;;;13.30;99.90;;;;;;5064603;28;20542;-83
2021/10/21 13:18:33;;;;;;;4.40;1.30;;;13.30;99.90;;;;;;5063603;28;20894;-83
2021/10/21 13:21:01;;;;;;;2.27;1.57;;;;;;;;;;5062536;28;20456;-84
2021/10/21 13:23:30;;;;;;;2.63;1.70;;;;;;;;;;5086251;22;20490;-86
2021/10/21 13:26:00;;;;;;;2.53;1.37;;;;;;;;;;5064567;28;20450;-86
2021/10/21 13:28:28;;;;;;;3.30;1.70;;;;;;;;;;5064499;28;20526;-87
2021/10/21 13:30:58;;;;;;;4.27;2.07;;;;;;;;;;5061529;28;20445;-87
2021/10/21 13:33:25;;;;;;;4.07;1.50;;;;;;;;;;5060136;28;20462;-87
2021/10/21 13:35:54;;;;;;;9.10;2.43;;;;;;;;;;5061785;28;20475;-87
2021/10/21 13:38:23;;;;;;;2.70;1.73;;;;;;;;;;5061995;28;20421;-88
2021/10/21 13:40:50;;;;;;;1.73;1.53;;;;;;;;;;5071359;28;20560;-85
2021/10/21 13:43:17;;;;;;;9.73;1.63;;;;;;;;;;5075804;28;20462;-88
2021/10/21 13:45:45;;;;;;;5.87;2.07;;;;;;;;;;5076370;28;20445;-87
2021/10/21 13:48:13;;;;;;;3.53;1.50;;;13.50;99.90;;;;;;5073496;28;20420;-88
2021/10/21 13:50:40;;;;;;;2.93;1.70;;;;;;;;;;5068594;28;20489;-87
2021/10/21 13:53:11;;;;;;;4.17;1.83;;;;;;;;;;5064471;28;20459;-87
2021/10/21 13:55:39;;;;;;;4.90;2.13;;;;;;;;;;5066619;28;20436;-87
2021/10/21 13:58:07;;;;;;;3.27;2.43;;;;;;;;;;5077601;28;20483;-90
2021/10/21 14:00:35;;;;;;;4.27;2.40;;;;;;;;;;5067028;28;20493;-88
2021/10/21 14:03:02;;;;;;;5.80;2.47;;;;;;;;;;5061599;28;20469;-87
2021/10/21 14:05:29;;;;;;;2.70;2.10;;;;;;;;;;5060693;28;20472;-87
2021/10/21 14:07:56;;;;;;;7.97;2.73;;;;;;;;;;5060423;28;20446;-87
2021/10/21 14:10:25;;;;;;;9.80;2.60;;;;;;;;;;5061199;28;20441;-87
2021/10/21 14:12:59;;;;;;;3.90;2.63;;;;;;;;;;5062779;28;20439;-87
2021/10/21 14:15:26;;;;;;;3.40;2.00;;;;;;;;;;5062048;28;20489;-87
2021/10/21 14:17:54;;;;;;;4.50;2.20;;;;;;;;;;5063216;28;20457;-87
2021/10/21 14:20:21;;;;;;;4.37;1.90;;;;;;;;;;5061973;28;20465;-87
2021/10/21 14:22:48;;;;;;;3.43;2.20;;;;;;;;;;5059714;28;20797;-88